Time;durP1;ratioP1;P1;durP2;ratioP2;P2;SDS_P1;SDS_P2;PMS_P1;PMS_P2;Temp;Humidity;BMP_temperature;BMP_pressure;BME280_temperature;BME280_humidity;BME280_pressure;Samples;Min_cycle;Max_cycle;Signal;HPM_P1;HPM_P2
2021/11/27 00:02:16;;;;;;;5.88;3.50;;;;;;;;;;4683316;30;33343;-70
2021/11/27 00:04:42;;;;;;;7.22;4.70;;;;;;;;;;4683795;30;32776;-75
2021/11/27 00:07:09;;;;;;;6.53;3.63;;;;;;;;;;4685650;30;32615;-72
2021/11/27 00:09:37;;;;;;;7.93;4.72;;;;;;;;;;4685616;30;32575;-72
2021/11/27 00:12:05;;;;;;;6.18;4.55;;;;;;;;;;4685100;30;33334;-74
2021/11/27 00:14:33;;;;;;;5.20;3.40;;;;;;;;;;4684924;30;32657;-71
2021/11/27 00:17:00;;;;;;;5.10;3.47;;;;;;;;;;4682341;30;33084;-71
2021/11/27 00:19:27;;;;;;;5.78;3.25;;;;;;;;;;4681630;30;32759;-72
2021/11/27 00:21:53;;;;;;;4.82;3.00;;;;;;;;;;4685671;30;32495;-72
2021/11/27 00:24:20;;;;;;;5.28;4.65;;;;;;;;;;4684722;30;32768;-74
2021/11/27 00:26:48;;;;;;;4.95;3.13;;;;;;;;;;4680620;30;33349;-71
2021/11/27 00:29:14;;;;;;;4.10;2.95;;;;;;;;;;4683494;30;32463;-71
2021/11/27 00:31:42;;;;;;;5.63;3.15;;;;;;;;;;4685170;30;32419;-71
2021/11/27 00:34:10;;;;;;;5.78;4.25;;;;;;;;;;4698266;30;33598;-73
2021/11/27 00:36:36;;;;;;;5.22;3.45;;;;;;;;;;4683645;30;32625;-72
2021/11/27 00:39:05;;;;;;;5.10;3.17;;;;;;;;;;4682218;30;32545;-71
2021/11/27 00:41:31;;;;;;;3.90;2.72;;;;;;;;;;4684136;30;32871;-71
2021/11/27 00:43:59;;;;;;;5.20;2.85;;;;;;;;;;4685156;30;32545;-72
2021/11/27 00:46:26;;;;;;;5.28;3.10;;;;;;;;;;4683860;30;32568;-71
2021/11/27 00:48:53;;;;;;;4.20;2.90;;;;;;;;;;4685030;30;32522;-71
2021/11/27 00:51:23;;;;;;;5.47;2.90;;;;;;;;;;4684997;30;32519;-73
2021/11/27 00:53:50;;;;;;;5.07;4.40;;;;;;;;;;4684175;30;33230;-71
2021/11/27 00:56:17;;;;;;;5.13;3.95;;;;;;;;;;4683899;30;32681;-72
2021/11/27 00:58:45;;;;;;;4.57;4.05;;;;;;;;;;4685006;30;32865;-71
2021/11/27 01:01:17;;;;;;;4.60;3.80;;;;;;;;;;4683636;30;32557;-72
2021/11/27 01:03:45;;;;;;;4.75;4.10;;;;;;;;;;4684431;30;32635;-71
2021/11/27 01:06:14;;;;;;;5.85;3.92;;;;;;;;;;4684752;30;32649;-71
2021/11/27 01:08:41;;;;;;;5.20;3.40;;;;;;;;;;4683944;30;33129;-74
2021/11/27 01:11:14;;;;;;;4.57;4.03;;;;;;;;;;4683649;30;32939;-71
2021/11/27 01:13:44;;;;;;;7.00;3.72;;;;;;;;;;4684669;30;32486;-75
2021/11/27 01:16:14;;;;;;;4.95;3.35;;;;;;;;;;4684066;30;32549;-72
2021/11/27 01:18:41;;;;;;;5.47;3.55;;;;;;;;;;4684065;30;32586;-72
2021/11/27 01:21:11;;;;;;;7.70;4.55;;;;;;;;;;4684276;30;33148;-75
2021/11/27 01:23:40;;;;;;;5.35;3.78;;;;;;;;;;4684349;30;32698;-73
2021/11/27 01:26:07;;;;;;;5.93;4.00;;;;;;;;;;4684230;30;32614;-74
2021/11/27 01:28:34;;;;;;;7.35;5.40;;;;;;;;;;4681058;30;33196;-71
2021/11/27 01:31:01;;;;;;;7.60;5.40;;;;;;;;;;4685129;30;32587;-73
2021/11/27 01:33:31;;;;;;;;;;;;;;;;;;4685889;30;32569;-71
2021/11/27 01:35:59;;;;;;;9.52;6.05;;;;;;;;;;4685231;30;32622;-70
2021/11/27 01:38:26;;;;;;;7.57;5.30;;;;;;;;;;4681329;30;32614;-72
2021/11/27 01:40:54;;;;;;;7.47;5.53;;;;;;;;;;4683322;30;32632;-72
2021/11/27 01:43:21;;;;;;;7.15;4.47;;;;;;;;;;4683592;30;32600;-74
2021/11/27 01:45:48;;;;;;;8.70;4.53;;;;;;;;;;4683838;30;33010;-71
2021/11/27 01:48:17;;;;;;;;;;;;;;;;;;4684012;30;32592;-71
2021/11/27 01:50:49;;;;;;;5.55;3.63;;;;;;;;;;4683558;30;32471;-72
2021/11/27 01:53:17;;;;;;;6.38;4.28;;;;;;;;;;4683455;30;33299;-71
2021/11/27 01:55:43;;;;;;;;;;;;;;;;;;4684346;30;32457;-71
2021/11/27 01:58:11;;;;;;;7.53;5.07;;;;;;;;;;4684756;30;32597;-72
2021/11/27 02:00:42;;;;;;;10.32;5.97;;;;;;;;;;4682938;30;32614;-75
2021/11/27 02:03:09;;;;;;;9.20;5.82;;;;;;;;;;4683784;30;33346;-73
2021/11/27 02:05:36;;;;;;;8.15;5.45;;;;;;;;;;4684229;30;32930;-73
2021/11/27 02:08:04;;;;;;;9.57;6.28;;;;;;;;;;4683213;30;33102;-73
2021/11/27 02:10:31;;;;;;;8.25;5.95;;;;;;;;;;4683234;30;32399;-73
2021/11/27 02:12:58;;;;;;;8.32;5.60;;;;;;;;;;4683738;30;32625;-73
2021/11/27 02:15:25;;;;;;;9.20;4.90;;;;;;;;;;4683261;30;34227;-73
2021/11/27 02:17:52;;;;;;;8.73;6.30;;;;;;;;;;4683788;30;32754;-72
2021/11/27 02:20:19;;;;;;;6.65;4.57;;;;;;;;;;4683706;30;33162;-71
2021/11/27 02:22:47;;;;;;;9.50;6.80;;;;;;;;;;4683032;30;32638;-71
2021/11/27 02:25:18;;;;;;;7.68;4.88;;;;;;;;;;4683675;30;32689;-71
2021/11/27 02:27:48;;;;;;;6.70;4.38;;;;;;;;;;4683145;30;32394;-72
2021/11/27 02:30:19;;;;;;;7.95;5.03;;;;;;;;;;4683287;30;32590;-70
2021/11/27 02:32:46;;;;;;;9.02;6.32;;;;;;;;;;4683400;30;32500;-70
2021/11/27 02:35:12;;;;;;;7.90;6.00;;;;;;;;;;4684083;30;32726;-69
2021/11/27 02:37:39;;;;;;;8.55;4.88;;;;;;;;;;4682778;30;32840;-69
2021/11/27 02:40:09;;;;;;;7.25;4.75;;;;;;;;;;4679146;30;32774;-72
2021/11/27 02:42:36;;;;;;;10.27;5.07;;;;;;;;;;4682649;30;33099;-70
2021/11/27 02:45:04;;;;;;;7.30;5.80;;;;;;;;;;4682746;30;32585;-71
2021/11/27 02:47:31;;;;;;;8.05;4.85;;;;;;;;;;4679600;30;33393;-73
2021/11/27 02:49:59;;;;;;;7.97;4.63;;;;;;;;;;4681412;30;32405;-72
2021/11/27 02:52:28;;;;;;;7.78;4.10;;;;;;;;;;4682368;30;32589;-71
2021/11/27 02:54:54;;;;;;;7.03;4.45;;;;;;;;;;4688527;30;32664;-71
2021/11/27 02:57:23;;;;;;;9.35;6.45;;;;;;;;;;4683977;30;32628;-73
2021/11/27 02:59:49;;;;;;;8.25;4.95;;;;;;;;;;4682602;30;32770;-72
2021/11/27 03:02:16;;;;;;;8.25;5.53;;;;;;;;;;4683125;30;32601;-69
2021/11/27 03:04:43;;;;;;;8.93;6.40;;;;;;;;;;4683459;30;32495;-73
2021/11/27 03:07:10;;;;;;;9.23;4.68;;;;;;;;;;4683061;30;32629;-69
2021/11/27 03:09:37;;;;;;;7.60;5.13;;;;;;;;;;4683038;30;33873;-72
2021/11/27 03:12:04;;;;;;;9.30;4.40;;;;;;;;;;4682556;30;32384;-70
2021/11/27 03:14:32;;;;;;;6.80;4.03;;;;;;;;;;4682400;30;32648;-70
2021/11/27 03:17:00;;;;;;;8.30;6.13;;;;;;;;;;4683366;30;32546;-72
2021/11/27 03:19:28;;;;;;;7.88;4.60;;;;;;;;;;4683179;30;32583;-70
2021/11/27 03:21:55;;;;;;;6.63;4.30;;;;;;;;;;4682715;30;32453;-71
2021/11/27 03:24:21;;;;;;;7.40;4.72;;;;;;;;;;4682593;30;32609;-70
2021/11/27 03:26:48;;;;;;;8.50;5.43;;;;;;;;;;4683098;30;32562;-73
2021/11/27 03:29:15;;;;;;;6.88;5.35;;;;;;;;;;4682525;30;32478;-71
2021/11/27 03:31:43;;;;;;;5.97;4.03;;;;;;;;;;4681962;30;33114;-70
2021/11/27 03:34:10;;;;;;;6.85;4.65;;;;;;;;;;4682854;30;32610;-72
2021/11/27 03:36:36;;;;;;;7.90;5.85;;;;;;;;;;4681820;30;32590;-72
2021/11/27 03:39:05;;;;;;;8.57;5.63;;;;;;;;;;4682879;30;32427;-73
2021/11/27 03:41:32;;;;;;;6.63;4.43;;;;;;;;;;4683440;30;32633;-74
2021/11/27 03:43:58;;;;;;;10.30;5.70;;;;;;;;;;4682546;30;33233;-73
2021/11/27 03:46:25;;;;;;;7.43;4.60;;;;;;;;;;4682690;30;32557;-72
2021/11/27 03:48:54;;;;;;;7.22;5.45;;;;;;;;;;4682770;30;32502;-73
2021/11/27 03:51:24;;;;;;;7.55;4.18;;;;;;;;;;4682386;30;32826;-73
2021/11/27 03:53:51;;;;;;;7.78;5.70;;;;;;;;;;4682554;30;32749;-76
2021/11/27 03:56:20;;;;;;;7.03;5.03;;;;;;;;;;4682719;30;32523;-74
2021/11/27 03:58:48;;;;;;;7.80;5.07;;;;;;;;;;4681374;30;32531;-77
2021/11/27 04:01:17;;;;;;;7.68;4.60;;;;;;;;;;4681544;30;32459;-75
2021/11/27 04:03:46;;;;;;;8.18;4.70;;;;;;;;;;4682346;30;32389;-76
2021/11/27 04:06:16;;;;;;;6.60;3.92;;;;;;;;;;4681819;30;33334;-74
2021/11/27 04:08:42;;;;;;;6.53;5.30;;;;;;;;;;4682130;30;32561;-71
2021/11/27 04:11:09;;;;;;;7.70;5.53;;;;;;;;;;4684508;30;32705;-72
2021/11/27 04:13:35;;;;;;;7.63;5.35;;;;;;;;;;4684287;30;32408;-72
2021/11/27 04:16:03;;;;;;;10.68;5.28;;;;;;;;;;4684775;30;33770;-74
2021/11/27 04:18:30;;;;;;;5.93;4.15;;;;;;;;;;4698162;30;32632;-73
2021/11/27 04:20:57;;;;;;;9.02;5.38;;;;;;;;;;4684317;30;32649;-70
2021/11/27 04:23:25;;;;;;;6.13;4.82;;;;;;;;;;4679813;30;33353;-69
2021/11/27 04:25:52;;;;;;;6.60;4.20;;;;;;;;;;4684075;30;32478;-70
2021/11/27 04:28:19;;;;;;;7.00;4.65;;;;;;;;;;4683898;30;33221;-71
2021/11/27 04:30:46;;;;;;;8.50;4.35;;;;;;;;;;4684479;30;32525;-70
2021/11/27 04:33:13;;;;;;;6.10;4.15;;;;;;;;;;4682318;30;32451;-71
2021/11/27 04:35:40;;;;;;;8.38;5.53;;;;;;;;;;4683724;30;32525;-71
2021/11/27 04:38:07;;;;;;;;;;;;;;;;;;4683626;30;34218;-73
2021/11/27 04:40:36;;;;;;;6.93;5.15;;;;;;;;;;4684550;30;32992;-73
2021/11/27 04:43:03;;;;;;;7.65;5.65;;;;;;;;;;4683621;30;32612;-75
2021/11/27 04:45:31;;;;;;;8.38;5.32;;;;;;;;;;4683703;30;32661;-70
2021/11/27 04:47:57;;;;;;;6.20;4.57;;;;;;;;;;4683790;30;32501;-72
2021/11/27 04:50:25;;;;;;;8.40;5.38;;;;;;;;;;4679023;30;33617;-70
2021/11/27 04:52:52;;;;;;;7.13;4.15;;;;;;;;;;4682894;30;32598;-73
2021/11/27 04:55:19;;;;;;;6.82;4.88;;;;;;;;;;4683565;30;32667;-74
2021/11/27 04:57:47;;;;;;;6.25;4.45;;;;;;;;;;4679672;30;32449;-75
2021/11/27 05:00:20;;;;;;;7.28;5.00;;;;;;;;;;4684662;30;34327;-72
2021/11/27 05:02:47;;;;;;;7.47;4.13;;;;;;;;;;4683042;30;32548;-69
2021/11/27 05:05:14;;;;;;;7.60;3.38;;;;;;;;;;4683715;30;32653;-70
2021/11/27 05:07:40;;;;;;;5.75;4.07;;;;;;;;;;4684323;30;32613;-71
2021/11/27 05:10:08;;;;;;;6.38;4.75;;;;;;;;;;4683114;30;32621;-69
2021/11/27 05:12:34;;;;;;;7.15;4.70;;;;;;;;;;4678673;30;33213;-73
2021/11/27 05:15:03;;;;;;;6.60;4.53;;;;;;;;;;4682822;30;33013;-70
2021/11/27 05:17:30;;;;;;;6.68;3.97;;;;;;;;;;4682985;30;32568;-71
2021/11/27 05:19:56;;;;;;;8.50;3.78;;;;;;;;;;4681554;30;32649;-72
2021/11/27 05:22:23;;;;;;;7.57;5.28;;;;;;;;;;4683584;30;32783;-72
2021/11/27 05:24:50;;;;;;;5.85;3.75;;;;;;;;;;4683897;30;32646;-70
2021/11/27 05:27:19;;;;;;;6.43;4.80;;;;;;;;;;4682316;30;32479;-70
2021/11/27 05:29:48;;;;;;;6.18;3.58;;;;;;;;;;4682036;30;33168;-72
2021/11/27 05:35:02;;;;;;;5.82;4.38;;;;;;;;;;4682986;30;32871;-71
2021/11/27 05:37:29;;;;;;;6.65;4.80;;;;;;;;;;4683112;30;32552;-73
2021/11/27 05:39:56;;;;;;;5.82;4.53;;;;;;;;;;4683968;30;32658;-73
2021/11/27 05:42:23;;;;;;;5.78;3.58;;;;;;;;;;4681844;30;32656;-72
2021/11/27 05:44:53;;;;;;;5.18;3.08;;;;;;;;;;4682951;30;34061;-76
2021/11/27 05:47:23;;;;;;;4.35;3.35;;;;;;;;;;4682689;30;32385;-72
2021/11/27 05:49:50;;;;;;;5.75;3.53;;;;;;;;;;4684353;30;32554;-71
2021/11/27 05:52:17;;;;;;;6.90;3.97;;;;;;;;;;4684313;30;32597;-70
2021/11/27 05:54:43;;;;;;;6.90;5.20;;;;;;;;;;4683335;30;32664;-69
2021/11/27 05:57:10;;;;;;;5.70;4.35;;;;;;;;;;4682617;30;32502;-71
2021/11/27 05:59:37;;;;;;;5.60;3.40;;;;;;;;;;4670233;30;32856;-69
2021/11/27 06:02:04;;;;;;;5.38;3.50;;;;;;;;;;4678715;30;32545;-69
2021/11/27 06:04:32;;;;;;;5.60;4.78;;;;;;;;;;4679343;30;32399;-72
2021/11/27 06:06:59;;;;;;;4.85;3.20;;;;;;;;;;4676107;30;32751;-70
2021/11/27 06:09:25;;;;;;;5.53;3.25;;;;;;;;;;4679956;30;32508;-69
2021/11/27 06:11:52;;;;;;;7.30;3.72;;;;;;;;;;4679581;30;32622;-70
2021/11/27 06:14:19;;;;;;;7.15;4.70;;;;;;;;;;4681991;30;32515;-71
2021/11/27 06:16:46;;;;;;;5.45;3.63;;;;;;;;;;4684244;30;32457;-69
2021/11/27 06:19:13;;;;;;;5.97;5.05;;;;;;;;;;4681640;30;32476;-72
2021/11/27 06:21:41;;;;;;;5.32;3.22;;;;;;;;;;4682203;30;32565;-73
2021/11/27 06:24:08;;;;;;;6.45;4.40;;;;;;;;;;4680921;30;34146;-70
2021/11/27 06:26:35;;;;;;;7.40;4.97;;;;;;;;;;4682702;30;32607;-70
2021/11/27 06:29:01;;;;;;;5.95;4.28;;;;;;;;;;4681901;30;34617;-72
2021/11/27 06:31:28;;;;;;;6.90;4.75;;;;;;;;;;4680971;30;32747;-70
2021/11/27 06:33:55;;;;;;;5.25;3.50;;;;;;;;;;4681475;30;32549;-71
2021/11/27 06:36:22;;;;;;;6.60;3.17;;;;;;;;;;4683896;30;32496;-71
2021/11/27 06:38:49;;;;;;;5.80;4.22;;;;;;;;;;4681674;30;32616;-70
2021/11/27 06:41:17;;;;;;;4.75;3.08;;;;;;;;;;4681804;30;32896;-70
2021/11/27 06:43:44;;;;;;;5.55;3.40;;;;;;;;;;4681243;30;32653;-71
2021/11/27 06:46:11;;;;;;;7.80;5.05;;;;;;;;;;4682950;30;32650;-69
2021/11/27 06:48:37;;;;;;;5.70;3.38;;;;;;;;;;4679511;30;32669;-71
2021/11/27 06:51:04;;;;;;;4.47;3.40;;;;;;;;;;4681821;30;33636;-68
2021/11/27 06:53:30;;;;;;;5.05;3.22;;;;;;;;;;4682468;30;32523;-71
2021/11/27 06:55:59;;;;;;;5.25;3.58;;;;;;;;;;4681716;30;32549;-73
2021/11/27 06:58:26;;;;;;;6.65;3.33;;;;;;;;;;4682404;30;32356;-73
2021/11/27 07:00:52;;;;;;;4.15;2.75;;;;;;;;;;4682690;30;32715;-75
2021/11/27 07:03:19;;;;;;;5.70;4.35;;;;;;;;;;4681991;30;32536;-68
2021/11/27 07:05:45;;;;;;;6.63;4.32;;;;;;;;;;4680961;30;32622;-70
2021/11/27 07:08:12;;;;;;;5.28;3.10;;;;;;;;;;4683867;30;32614;-71
2021/11/27 07:10:38;;;;;;;6.65;5.03;;;;;;;;;;4672206;30;32598;-75
2021/11/27 07:13:06;;;;;;;5.40;3.20;;;;;;;;;;4680065;30;33155;-71
2021/11/27 07:15:33;;;;;;;6.63;3.30;;;;;;;;;;4681447;30;32802;-73
2021/11/27 07:18:00;;;;;;;6.78;2.72;;;;;;;;;;4677357;30;32425;-71
2021/11/27 07:20:27;;;;;;;4.63;2.47;;;;;;;;;;4681409;30;33197;-73
2021/11/27 07:22:54;;;;;;;6.50;4.05;;;;;;;;;;4682806;30;32600;-69
2021/11/27 07:25:20;;;;;;;8.73;2.92;;;;;;;;;;4681278;30;32549;-76
2021/11/27 07:27:47;;;;;;;7.30;2.72;;;;;;;;;;4681753;30;32618;-71
2021/11/27 07:30:15;;;;;;;5.68;2.70;;;;;;;;;;4683100;30;32525;-73
2021/11/27 07:32:42;;;;;;;5.50;2.92;;;;;;;;;;4681145;30;57426;-74
2021/11/27 07:35:09;;;;;;;4.63;3.00;;;;;;;;;;4679863;30;33222;-73
2021/11/27 07:37:35;;;;;;;5.57;2.70;;;;;;;;;;4680604;30;32510;-76
2021/11/27 07:40:02;;;;;;;4.53;2.40;;;;;;;;;;4681728;30;33037;-75
2021/11/27 07:42:29;;;;;;;5.10;2.40;;;;;;;;;;4682753;30;32536;-72
2021/11/27 07:44:56;;;;;;;3.88;3.47;;;;;;;;;;4674701;30;33350;-74
2021/11/27 07:47:24;;;;;;;4.18;3.58;;;;;;;;;;4666645;30;32538;-75
2021/11/27 07:49:50;;;;;;;5.22;3.67;;;;;;;;;;4666040;30;32441;-75
2021/11/27 07:52:21;;;;;;;3.42;2.10;;;;;;;;;;4669878;30;32699;-75
2021/11/27 07:54:49;;;;;;;3.28;2.33;;;;;;;;;;4668347;30;32478;-69
2021/11/27 07:57:15;;;;;;;4.35;2.83;;;;;;;;;;4667379;30;33752;-75
2021/11/27 07:59:42;;;;;;;6.70;3.75;;;;;;;;;;4666815;30;32764;-77
2021/11/27 08:02:08;;;;;;;12.45;3.90;;;;;;;;;;4676774;30;32392;-71
2021/11/27 08:04:37;;;;;;;8.88;3.40;;;;;;;;;;4672383;30;32739;-72
2021/11/27 08:07:03;;;;;;;5.25;2.28;;;;;;;;;;4666692;30;33219;-72
2021/11/27 08:09:30;;;;;;;4.32;3.60;;;;;;;;;;4660441;30;32769;-72
2021/11/27 08:11:56;;;;;;;3.95;2.30;;;;;;;;;;4659660;30;32694;-73
2021/11/27 08:14:28;;;;;;;4.10;3.47;;;;;;;;;;4663621;30;32392;-73
2021/11/27 08:16:54;;;;;;;2.97;1.85;;;;;;;;;;4677620;30;32382;-72
2021/11/27 08:19:21;;;;;;;2.65;2.03;;;;;;;;;;4658434;30;33406;-72
2021/11/27 08:21:49;;;;;;;2.65;1.48;;;;;;;;;;4673885;30;32485;-72
2021/11/27 08:24:15;;;;;;;3.85;3.08;;;;;;;;;;4675677;30;32517;-72
2021/11/27 08:26:42;;;;;;;3.60;2.53;;;;;;;;;;4676960;30;32375;-72
2021/11/27 08:29:08;;;;;;;2.85;2.60;;;;;;;;;;4677689;30;32790;-72
2021/11/27 08:31:35;;;;;;;2.13;1.75;;;;;;;;;;4677126;30;32753;-72
2021/11/27 08:34:01;;;;;;;2.88;1.67;;;;;;;;;;4677298;30;32410;-72
2021/11/27 08:36:28;;;;;;;3.67;2.55;;;;;;;;;;4677846;30;32423;-71
2021/11/27 08:38:56;;;;;;;4.78;2.38;;;;;;;;;;4677435;30;32468;-72
2021/11/27 08:41:22;;;;;;;1.48;1.10;;;;;;;;;;4677223;30;33946;-72
2021/11/27 08:43:49;;;;;;;3.42;2.95;;;;;;;;;;4677638;30;32407;-72
2021/11/27 08:46:16;;;;;;;3.58;2.40;;;;;;;;;;4677832;30;32235;-72
2021/11/27 08:48:42;;;;;;;3.08;2.40;;;;;;;;;;4661948;30;32275;-72
2021/11/27 08:51:11;;;;;;;3.20;1.50;;;;;;;;;;4659881;30;33687;-72
2021/11/27 08:53:38;;;;;;;2.72;1.70;;;;;;;;;;4659437;30;32520;-71
2021/11/27 08:56:07;;;;;;;3.47;2.83;;;;;;;;;;4659506;30;32732;-72
2021/11/27 08:58:34;;;;;;;3.58;1.70;;;;;;;;;;4660174;30;32468;-72
2021/11/27 09:01:00;;;;;;;3.25;2.60;;;;;;;;;;4659193;30;32436;-72
2021/11/27 09:03:27;;;;;;;2.78;1.63;;;;;;;;;;4659800;30;33233;-72
2021/11/27 09:05:54;;;;;;;3.33;1.42;;;;;;;;;;4659819;30;32483;-72
2021/11/27 09:08:20;;;;;;;2.95;2.67;;;;;;;;;;4659972;30;32816;-72
2021/11/27 09:10:48;;;;;;;2.05;1.55;;;;;;;;;;4659810;30;32416;-73
2021/11/27 09:13:16;;;;;;;3.38;2.10;;;;;;;;;;4659794;30;33405;-72
2021/11/27 09:15:43;;;;;;;2.38;1.92;;;;;;;;;;4671568;30;32794;-72
2021/11/27 09:18:10;;;;;;;3.45;1.98;;;;;;;;;;4659728;30;32326;-73
2021/11/27 09:20:36;;;;;;;3.17;2.88;;;;;;;;;;4659089;30;32390;-73
2021/11/27 09:23:03;;;;;;;3.63;2.58;;;;;;;;;;4659512;30;32467;-72
2021/11/27 09:25:30;;;;;;;3.67;3.38;;;;;;;;;;4658975;30;33099;-73
2021/11/27 09:27:57;;;;;;;2.88;1.77;;;;;;;;;;4658690;30;32468;-72
2021/11/27 09:30:28;;;;;;;3.40;3.05;;;;;;;;;;4659689;30;32505;-72
2021/11/27 09:32:55;;;;;;;4.10;3.15;;;;;;;;;;4659887;30;32471;-73
2021/11/27 09:35:22;;;;;;;3.17;2.65;;;;;;;;;;4659542;30;33891;-71
2021/11/27 09:37:49;;;;;;;3.88;2.92;;;;;;;;;;4659702;30;32346;-72
2021/11/27 09:40:16;;;;;;;3.42;2.95;;;;;;;;;;4659647;30;32520;-73
2021/11/27 09:42:44;;;;;;;;;;;;;;;;;;4660121;30;32466;-71
2021/11/27 09:45:11;;;;;;;3.38;2.80;;;;;;;;;;4659668;30;32425;-72
2021/11/27 09:47:39;;;;;;;2.58;1.67;;;;;;;;;;4659336;30;34174;-72
2021/11/27 09:50:08;;;;;;;3.92;3.10;;;;;;;;;;4658913;30;32536;-72
2021/11/27 09:52:35;;;;;;;4.68;3.03;;;;;;;;;;4659616;30;32549;-72
2021/11/27 09:55:03;;;;;;;2.05;1.58;;;;;;;;;;4659762;30;32383;-71
2021/11/27 09:57:29;;;;;;;3.63;2.38;;;;;;;;;;4659727;30;34211;-72
2021/11/27 09:59:56;;;;;;;2.88;2.67;;;;;;;;;;4659448;30;32531;-72
2021/11/27 10:02:23;;;;;;;3.75;2.03;;;;;;;;;;4659595;30;32409;-72
2021/11/27 10:04:54;;;;;;;3.10;2.65;;;;;;;;;;4659116;30;32556;-72
2021/11/27 10:07:22;;;;;;;3.50;1.83;;;;;;;;;;4659035;30;32426;-72
2021/11/27 10:09:51;;;;;;;4.28;1.77;;;;;;;;;;4658851;30;33422;-72
2021/11/27 10:12:19;;;;;;;3.78;3.20;;;;;;;;;;4659095;30;32404;-72
2021/11/27 10:14:46;;;;;;;2.92;2.47;;;;;;;;;;4659302;30;32605;-71
2021/11/27 10:17:14;;;;;;;3.80;2.15;;;;;;;;;;4659418;30;32289;-72
2021/11/27 10:20:07;;;;;;;4.55;3.20;;;;;;;;;;4658734;30;33540;-72
2021/11/27 10:22:44;;;;;;;3.38;3.08;;;;;;;;;;4659317;30;32483;-71
2021/11/27 10:25:30;;;;;;;5.20;2.88;;;;;;;;;;4659012;30;32386;-73
2021/11/27 10:28:13;;;;;;;3.90;2.72;;;;;;;;;;4659302;30;32535;-71
2021/11/27 10:30:50;;;;;;;4.57;3.45;;;;;;;;;;4659640;30;32520;-70
2021/11/27 10:33:19;;;;;;;3.13;1.98;;;;;;;;;;4659388;30;33024;-71
2021/11/27 10:35:55;;;;;;;5.30;3.75;;;;;;;;;;4658751;30;32421;-72
2021/11/27 10:38:23;;;;;;;3.97;3.65;;;;;;;;;;4659178;30;32463;-71
2021/11/27 10:40:57;;;;;;;2.65;2.08;;;;;;;;;;4657807;30;32218;-71
2021/11/27 10:43:24;;;;;;;3.00;2.13;;;;;;;;;;4658242;30;32610;-72
2021/11/27 10:45:50;;;;;;;3.67;2.65;;;;;;;;;;4658347;30;32694;-71
2021/11/27 10:48:19;;;;;;;3.78;3.15;;;;;;;;;;4658826;30;32420;-72
2021/11/27 10:50:52;;;;;;;3.92;2.55;;;;;;;;;;4658958;30;32531;-72
2021/11/27 10:53:22;;;;;;;4.18;2.72;;;;;;;;;;4658591;30;32201;-71
2021/11/27 10:55:49;;;;;;;3.55;3.20;;;;;;;;;;4658780;30;32954;-72
2021/11/27 10:58:15;;;;;;;3.30;2.45;;;;;;;;;;4659092;30;32747;-72
2021/11/27 11:00:45;;;;;;;3.67;3.38;;;;;;;;;;4658567;30;32610;-72
2021/11/27 11:03:28;;;;;;;3.95;3.53;;;;;;;;;;4658988;30;32354;-72
2021/11/27 11:05:58;;;;;;;3.38;2.20;;;;;;;;;;4658406;30;32653;-72
2021/11/27 11:08:43;;;;;;;3.58;2.70;;;;;;;;;;4658895;30;32155;-72
2021/11/27 11:11:26;;;;;;;4.43;3.78;;;;;;;;;;4659059;30;32532;-72
2021/11/27 11:13:56;;;;;;;3.85;3.25;;;;;;;;;;4658815;30;32483;-72
2021/11/27 11:16:25;;;;;;;4.00;3.63;;;;;;;;;;4658434;30;32539;-73
2021/11/27 11:18:52;;;;;;;3.00;2.20;;;;;;;;;;4658458;30;33391;-73
2021/11/27 11:21:22;;;;;;;4.50;4.03;;;;;;;;;;4661218;30;32667;-71
2021/11/27 11:23:49;;;;;;;3.88;3.50;;;;;;;;;;4660970;30;32374;-72
2021/11/27 11:26:18;;;;;;;3.75;2.60;;;;;;;;;;4660940;30;32635;-71
2021/11/27 11:28:48;;;;;;;4.47;3.58;;;;;;;;;;4660015;30;32811;-73
2021/11/27 11:31:17;;;;;;;4.95;4.03;;;;;;;;;;4661366;30;32443;-73
2021/11/27 11:33:47;;;;;;;5.28;2.85;;;;;;;;;;4660901;30;32357;-72
2021/11/27 11:36:17;;;;;;;4.00;3.60;;;;;;;;;;4659813;30;32504;-71
2021/11/27 11:38:46;;;;;;;3.92;3.42;;;;;;;;;;4660916;30;32458;-72
2021/11/27 11:41:15;;;;;;;5.38;4.53;;;;;;;;;;4660764;30;33680;-71
2021/11/27 11:43:42;;;;;;;4.40;2.70;;;;;;;;;;4660888;30;32709;-72
2021/11/27 11:46:09;;;;;;;3.72;3.42;;;;;;;;;;4660776;30;32168;-72
2021/11/27 11:48:39;;;;;;;4.22;3.75;;;;;;;;;;4660694;30;32624;-73
2021/11/27 11:51:33;;;;;;;3.13;2.20;;;;;;;;;;4661257;30;32515;-72
2021/11/27 11:54:03;;;;;;;3.78;2.60;;;;;;;;;;4660455;30;32731;-72
2021/11/27 11:56:33;;;;;;;4.57;3.95;;;;;;;;;;4661073;30;32338;-72
2021/11/27 11:59:19;;;;;;;3.80;2.72;;;;;;;;;;4660667;30;32440;-71
2021/11/27 12:02:12;;;;;;;4.18;2.72;;;;;;;;;;4660960;30;32564;-71
2021/11/27 12:04:39;;;;;;;5.05;3.75;;;;;;;;;;4660187;30;32657;-72
2021/11/27 12:07:08;;;;;;;;;;;;;;;;;;4661608;30;32519;-71
2021/11/27 12:10:12;;;;;;;3.78;3.35;;;;;;;;;;4660975;30;32477;-72
2021/11/27 12:12:39;;;;;;;3.85;2.75;;;;;;;;;;4660245;30;32474;-71
2021/11/27 12:15:06;;;;;;;4.55;3.83;;;;;;;;;;4660206;30;32789;-72
2021/11/27 12:17:34;;;;;;;4.40;2.58;;;;;;;;;;4660636;30;32499;-71
2021/11/27 12:20:02;;;;;;;4.82;3.50;;;;;;;;;;4660535;30;32387;-71
2021/11/27 12:22:36;;;;;;;4.68;2.63;;;;;;;;;;4660548;30;32448;-72
2021/11/27 12:25:16;;;;;;;;;;;;;;;;;;4660882;30;32317;-72
2021/11/27 12:28:15;;;;;;;3.22;2.55;;;;;;;;;;4660073;30;33334;-72
2021/11/27 12:31:03;;;;;;;4.55;3.28;;;;;;;;;;4658146;30;32414;-73
2021/11/27 12:33:59;;;;;;;5.55;3.40;;;;;;;;;;4660471;30;32412;-72
2021/11/27 12:36:48;;;;;;;4.65;3.33;;;;;;;;;;4659919;30;32452;-74
2021/11/27 12:39:36;;;;;;;4.75;3.88;;;;;;;;;;4660473;30;33872;-73
2021/11/27 12:42:35;;;;;;;5.38;3.97;;;;;;;;;;4659999;30;32498;-72
2021/11/27 12:45:04;;;;;;;4.57;2.17;;;;;;;;;;4659429;30;32425;-72
2021/11/27 12:47:36;;;;;;;5.00;3.70;;;;;;;;;;4660168;30;32709;-71
2021/11/27 12:50:20;;;;;;;4.50;3.90;;;;;;;;;;4660313;30;32359;-72
2021/11/27 12:52:47;;;;;;;4.50;2.33;;;;;;;;;;4659521;30;34060;-71
2021/11/27 12:55:35;;;;;;;;;;;;;;;;;;4660088;30;32419;-72
2021/11/27 12:58:29;;;;;;;5.05;3.85;;;;;;;;;;4671977;30;32927;-73
2021/11/27 13:00:56;;;;;;;4.05;2.80;;;;;;;;;;4658489;30;32309;-71
2021/11/27 13:03:23;;;;;;;5.25;3.65;;;;;;;;;;4659710;30;32621;-71
2021/11/27 13:05:50;;;;;;;3.78;3.38;;;;;;;;;;4659987;30;32597;-71
2021/11/27 13:08:27;;;;;;;4.07;2.47;;;;;;;;;;4659733;30;32559;-71
2021/11/27 13:10:54;;;;;;;5.03;3.63;;;;;;;;;;4658932;30;32532;-71
2021/11/27 13:13:24;;;;;;;3.92;2.40;;;;;;;;;;4659679;30;32521;-71
2021/11/27 13:15:53;;;;;;;2.72;2.00;;;;;;;;;;4659899;30;34491;-73
2021/11/27 13:18:22;;;;;;;4.10;2.72;;;;;;;;;;4659682;30;32374;-71
2021/11/27 13:20:52;;;;;;;4.10;2.72;;;;;;;;;;4659560;30;32455;-71
2021/11/27 13:23:21;;;;;;;4.07;3.42;;;;;;;;;;4660282;30;32467;-71
2021/11/27 13:25:50;;;;;;;5.43;3.05;;;;;;;;;;4659771;30;34205;-72
2021/11/27 13:28:29;;;;;;;4.35;2.45;;;;;;;;;;4659724;30;32619;-71
2021/11/27 13:30:58;;;;;;;4.43;3.35;;;;;;;;;;4659678;30;32566;-72
2021/11/27 13:33:27;;;;;;;4.63;3.45;;;;;;;;;;4659670;30;32413;-72
2021/11/27 13:35:54;;;;;;;4.13;2.55;;;;;;;;;;4659476;30;32359;-72
2021/11/27 13:38:34;;;;;;;4.88;2.65;;;;;;;;;;4659549;30;33453;-72
2021/11/27 13:41:01;;;;;;;4.75;3.35;;;;;;;;;;4659409;30;32476;-72
2021/11/27 13:43:30;;;;;;;5.38;3.65;;;;;;;;;;4658801;30;32494;-72
2021/11/27 13:46:03;;;;;;;4.78;3.38;;;;;;;;;;4662214;30;32447;-71
2021/11/27 13:48:35;;;;;;;5.80;3.35;;;;;;;;;;4659249;30;32662;-71
2021/11/27 13:51:02;;;;;;;6.95;4.15;;;;;;;;;;4663787;30;32330;-72
2021/11/27 13:53:29;;;;;;;4.07;2.35;;;;;;;;;;4668250;30;32572;-72
2021/11/27 13:55:58;;;;;;;4.70;2.28;;;;;;;;;;4674690;30;32309;-74
2021/11/27 13:58:25;;;;;;;4.82;3.00;;;;;;;;;;4674827;30;32581;-74
2021/11/27 14:00:58;;;;;;;5.55;3.55;;;;;;;;;;4674997;30;33798;-74
2021/11/27 14:03:31;;;;;;;6.65;3.38;;;;;;;;;;4675846;30;32770;-75
2021/11/27 14:06:10;;;;;;;4.15;2.60;;;;;;;;;;4676125;30;32530;-72
2021/11/27 14:08:38;;;;;;;5.63;3.70;;;;;;;;;;4676367;30;32438;-75
2021/11/27 14:11:10;;;;;;;5.75;2.60;;;;;;;;;;4676126;30;32685;-75
2021/11/27 14:13:39;;;;;;;3.72;2.08;;;;;;;;;;4676089;30;32598;-74
2021/11/27 14:16:19;;;;;;;5.28;3.45;;;;;;;;;;4675852;30;32555;-74
2021/11/27 14:18:45;;;;;;;4.97;2.88;;;;;;;;;;4674964;30;32479;-72
2021/11/27 14:21:14;;;;;;;4.22;2.90;;;;;;;;;;4676136;30;32378;-71
2021/11/27 14:23:45;;;;;;;4.25;2.17;;;;;;;;;;4675971;30;33069;-70
2021/11/27 14:26:16;;;;;;;3.72;3.00;;;;;;;;;;4673696;30;32552;-71
2021/11/27 14:28:45;;;;;;;5.40;3.25;;;;;;;;;;4676142;30;32969;-70
2021/11/27 14:31:15;;;;;;;3.58;1.85;;;;;;;;;;4673683;30;32686;-71
2021/11/27 14:33:43;;;;;;;3.47;2.33;;;;;;;;;;4674926;30;32749;-71
2021/11/27 14:36:16;;;;;;;5.35;2.33;;;;;;;;;;4673483;30;32548;-71
2021/11/27 14:38:46;;;;;;;4.70;3.95;;;;;;;;;;4675854;30;32538;-70
2021/11/27 14:41:20;;;;;;;3.63;2.45;;;;;;;;;;4674054;30;32533;-72
2021/11/27 14:44:04;;;;;;;3.70;2.20;;;;;;;;;;4675477;30;32595;-75
2021/11/27 14:46:41;;;;;;;4.07;2.90;;;;;;;;;;4673518;30;34140;-70
2021/11/27 14:49:27;;;;;;;6.13;3.35;;;;;;;;;;4675425;30;32517;-73
2021/11/27 14:52:01;;;;;;;4.22;3.22;;;;;;;;;;4673909;30;32408;-71
2021/11/27 14:54:30;;;;;;;4.55;3.88;;;;;;;;;;4674913;30;32301;-71
2021/11/27 14:56:59;;;;;;;6.20;2.67;;;;;;;;;;4675013;30;32810;-71
2021/11/27 14:59:26;;;;;;;6.82;3.60;;;;;;;;;;4674894;30;32413;-73
2021/11/27 15:01:54;;;;;;;5.38;2.63;;;;;;;;;;4675231;30;32489;-71